createdAt,value
2018-11-22T12:15:57.488Z,66.40
2018-11-22T12:18:25.155Z,65.20
2018-11-22T12:20:52.846Z,57.43
2018-11-22T12:23:20.531Z,58.47
2018-11-22T12:25:48.230Z,58.23
2018-11-22T12:28:15.900Z,73.20
2018-11-22T12:30:43.493Z,65.00
2018-11-22T12:33:19.581Z,71.33
2018-11-22T12:35:53.611Z,62.77
2018-11-22T12:38:27.073Z,60.00
2018-11-22T12:40:54.714Z,63.47
2018-11-22T12:43:22.361Z,63.23
2018-11-22T12:45:49.970Z,64.63
2018-11-22T12:48:17.667Z,67.50
2018-11-22T12:50:45.277Z,66.70
2018-11-22T12:53:13.179Z,62.20
2018-11-22T12:55:40.845Z,65.27
2018-11-22T12:58:08.541Z,61.33
2018-11-22T13:00:36.424Z,61.07
2018-11-22T13:03:04.119Z,69.63
2018-11-22T13:05:31.991Z,70.47
2018-11-22T13:07:59.637Z,69.97
2018-11-22T13:10:27.268Z,61.70
2018-11-22T13:12:54.882Z,63.27
2018-11-22T13:15:22.497Z,63.93
2018-11-22T13:17:50.138Z,65.07
2018-11-22T13:20:19.219Z,70.00
2018-11-22T13:22:46.877Z,67.07
2018-11-22T13:25:17.129Z,62.27
2018-11-22T13:27:44.824Z,62.37
2018-11-22T13:30:15.197Z,67.23
2018-11-22T13:32:43.580Z,67.57
2018-11-22T13:35:12.273Z,71.80
2018-11-22T13:37:40.456Z,65.27
2018-11-22T13:40:09.603Z,70.27
2018-11-22T13:42:37.493Z,71.27
2018-11-22T13:45:07.891Z,134.97
2018-11-22T13:47:35.649Z,74.60
2018-11-22T13:50:04.190Z,70.00
2018-11-22T13:52:37.194Z,68.83
2018-11-22T13:54:59.492Z,66.00
2018-11-22T13:57:27.201Z,78.83
2018-11-22T13:59:58.408Z,69.93
2018-11-22T14:02:22.448Z,69.17
2018-11-22T14:04:50.183Z,62.83
2018-11-22T14:07:17.825Z,66.30
2018-11-22T14:09:45.468Z,69.30
2018-11-22T14:12:13.110Z,67.10
2018-11-22T14:14:40.732Z,67.30
2018-11-22T14:17:08.476Z,68.90
2018-11-22T14:19:36.133Z,84.13
2018-11-22T14:22:03.961Z,70.23
2018-11-22T14:24:31.528Z,74.87
2018-11-22T14:26:59.101Z,74.80
2018-11-22T14:29:26.760Z,80.70
2018-11-22T14:31:54.591Z,70.50
2018-11-22T14:34:22.244Z,68.17
2018-11-22T14:36:49.843Z,70.43
2018-11-22T14:39:17.490Z,72.90
2018-11-22T14:41:45.213Z,74.50
2018-11-22T14:44:12.839Z,69.53
2018-11-22T14:46:40.440Z,68.60
2018-11-22T14:49:09.107Z,70.47
2018-11-22T14:51:43.259Z,79.57
2018-11-22T14:54:10.924Z,73.27
2018-11-22T14:56:38.597Z,67.37
2018-11-22T14:59:07.222Z,79.63
2018-11-22T15:01:34.863Z,72.07
2018-11-22T15:04:02.510Z,65.50
2018-11-22T15:06:30.215Z,65.07
2018-11-22T15:08:57.893Z,69.00
2018-11-22T15:11:26.085Z,75.63
2018-11-22T15:13:54.060Z,74.00
2018-11-22T15:16:21.680Z,72.03
2018-11-22T15:18:49.388Z,77.83
2018-11-22T15:21:23.773Z,70.60
2018-11-22T15:23:51.595Z,74.63
2018-11-22T15:26:19.201Z,71.77
2018-11-22T15:28:46.899Z,67.27
2018-11-22T15:31:14.949Z,76.43
2018-11-22T15:33:42.661Z,79.10
2018-11-22T15:36:10.341Z,72.10
2018-11-22T15:38:38.019Z,74.17
2018-11-22T15:41:07.931Z,76.87
2018-11-22T15:43:35.609Z,72.50
2018-11-22T15:46:03.352Z,81.10
2018-11-22T15:48:31.227Z,77.87
2018-11-22T15:50:58.960Z,71.33
2018-11-22T15:53:26.705Z,72.57
2018-11-22T15:55:54.356Z,80.90
2018-11-22T15:58:21.998Z,78.27
2018-11-22T16:00:49.694Z,84.97
2018-11-22T16:03:17.346Z,77.23
2018-11-22T16:05:44.992Z,79.10
2018-11-22T16:08:12.675Z,78.20
2018-11-22T16:10:40.310Z,82.13
2018-11-22T16:13:10.092Z,72.90
2018-11-22T16:15:40.938Z,74.73
2018-11-22T16:18:08.614Z,78.17
2018-11-22T16:20:36.483Z,73.23
2018-11-22T16:23:04.608Z,73.40
2018-11-22T16:25:32.260Z,80.30
2018-11-22T16:27:59.925Z,85.17
2018-11-22T16:30:28.572Z,86.60
2018-11-22T16:32:56.172Z,75.67
2018-11-22T16:35:24.679Z,84.63
2018-11-22T16:37:52.345Z,82.20
2018-11-22T16:40:21.499Z,77.50
2018-11-22T16:42:50.379Z,80.93
2018-11-22T16:45:27.843Z,85.50
2018-11-22T16:47:56.011Z,77.03
2018-11-22T16:50:24.908Z,76.77
2018-11-22T16:52:52.769Z,84.53
2018-11-22T16:55:21.043Z,84.93
2018-11-22T16:57:49.729Z,79.30
2018-11-22T17:00:27.276Z,79.63
2018-11-22T17:02:56.344Z,77.40
2018-11-22T17:05:24.108Z,78.17
2018-11-22T17:07:51.911Z,82.10
2018-11-22T17:10:20.841Z,74.10
2018-11-22T17:12:49.563Z,78.60
2018-11-22T17:15:18.641Z,84.33
2018-11-22T17:17:46.781Z,79.50
2018-11-22T17:20:15.581Z,81.53
2018-11-22T17:22:44.133Z,87.03
2018-11-22T17:25:14.606Z,84.97
2018-11-22T17:27:42.984Z,81.03
2018-11-22T17:30:13.204Z,82.53
2018-11-22T17:32:41.369Z,80.73
2018-11-22T17:35:11.443Z,86.87
2018-11-22T17:37:38.945Z,81.63
2018-11-22T17:40:10.953Z,86.10
2018-11-22T17:42:38.522Z,80.47
2018-11-22T17:45:08.725Z,85.30
2018-11-22T17:47:36.324Z,83.20
2018-11-22T17:50:04.465Z,84.40
2018-11-22T17:52:32.012Z,85.20
2018-11-22T17:54:59.591Z,78.93
2018-11-22T17:57:27.559Z,77.90
2018-11-22T17:59:55.156Z,86.40
2018-11-22T18:02:22.748Z,82.33
2018-11-22T18:04:50.377Z,87.90
2018-11-22T18:07:17.949Z,81.90
2018-11-22T18:09:45.536Z,78.27
2018-11-22T18:12:13.097Z,92.33
2018-11-22T18:14:40.733Z,83.70
2018-11-22T18:17:09.472Z,86.33
2018-11-22T18:19:37.423Z,75.93
2018-11-22T18:22:05.138Z,85.17
2018-11-22T18:24:32.708Z,87.90
2018-11-22T18:27:00.264Z,83.10
2018-11-22T18:29:28.069Z,77.23
2018-11-22T18:31:55.591Z,89.00
2018-11-22T18:34:23.219Z,71.70
2018-11-22T18:36:50.903Z,78.00
2018-11-22T18:39:18.463Z,91.60
2018-11-22T18:41:45.983Z,78.43
2018-11-22T18:44:13.588Z,88.23
2018-11-22T18:46:41.141Z,88.37
2018-11-22T18:49:09.695Z,89.60
2018-11-22T18:51:38.005Z,86.13
2018-11-22T18:54:05.544Z,81.53
2018-11-22T18:56:37.144Z,84.43
2018-11-22T18:59:01.545Z,83.00
2018-11-22T19:01:29.659Z,81.63
2018-11-22T19:03:57.307Z,86.10
2018-11-22T19:06:24.838Z,90.00
2018-11-22T19:08:52.809Z,90.03
2018-11-22T19:11:20.438Z,75.97
2018-11-22T19:13:48.016Z,85.07
2018-11-22T19:16:15.652Z,88.60
2018-11-22T19:18:43.248Z,75.10
2018-11-22T19:21:10.871Z,81.93
2018-11-22T19:23:39.218Z,80.53
2018-11-22T19:26:06.794Z,88.13
2018-11-22T19:28:34.372Z,86.43
2018-11-22T19:31:01.980Z,87.10
2018-11-22T19:33:29.577Z,88.03
2018-11-22T19:35:57.153Z,91.27
2018-11-22T19:38:24.863Z,85.90
2018-11-22T19:40:53.158Z,85.30
2018-11-22T19:43:20.908Z,94.00
2018-11-22T19:45:49.002Z,81.87
2018-11-22T19:48:16.716Z,84.07
2018-11-22T19:50:44.319Z,88.47
2018-11-22T19:53:13.190Z,85.07
2018-11-22T19:55:41.209Z,90.37
2018-11-22T19:58:10.233Z,91.03
2018-11-22T20:00:37.904Z,84.87
2018-11-22T20:03:06.512Z,87.93
2018-11-22T20:05:35.762Z,86.20
2018-11-22T20:08:05.319Z,85.43
2018-11-22T20:10:34.516Z,90.97
2018-11-22T20:13:02.075Z,93.13
2018-11-22T20:15:30.174Z,84.83
2018-11-22T20:17:58.528Z,98.00
2018-11-22T20:20:26.448Z,90.13
2018-11-22T20:22:54.121Z,84.13
2018-11-22T20:25:21.703Z,86.57
2018-11-22T20:27:50.342Z,97.40
2018-11-22T20:30:20.518Z,91.13
2018-11-22T20:32:48.094Z,93.20
2018-11-22T20:35:16.917Z,84.83
2018-11-22T20:37:45.312Z,94.07
2018-11-22T20:40:14.337Z,94.43
2018-11-22T20:42:42.421Z,100.00
2018-11-22T20:45:12.280Z,86.67
2018-11-22T20:47:40.679Z,88.93
2018-11-22T20:50:10.945Z,96.37
2018-11-22T20:52:39.501Z,99.03
2018-11-22T20:55:10.365Z,92.93
2018-11-22T20:57:43.577Z,81.23
2018-11-22T21:00:13.772Z,97.37
2018-11-22T21:02:41.354Z,90.83
2018-11-22T21:05:10.698Z,99.63
2018-11-22T21:07:38.520Z,94.17
2018-11-22T21:10:08.300Z,94.40
2018-11-22T21:12:35.994Z,90.67
2018-11-22T21:15:04.570Z,94.23
2018-11-22T21:17:32.292Z,91.37
2018-11-22T21:19:59.855Z,90.70
2018-11-22T21:22:27.540Z,94.60
2018-11-22T21:24:55.165Z,95.17
2018-11-22T21:27:22.856Z,92.20
2018-11-22T21:29:50.509Z,89.00
2018-11-22T21:32:18.062Z,94.90
2018-11-22T21:34:45.699Z,83.23
2018-11-22T21:37:13.240Z,89.23
2018-11-22T21:39:40.990Z,91.17
2018-11-22T21:42:08.794Z,95.13
2018-11-22T21:44:36.529Z,90.27
2018-11-22T21:59:55.649Z,86.13
2018-11-22T22:02:23.426Z,78.23
2018-11-22T22:04:51.144Z,85.20
2018-11-22T22:07:18.801Z,88.77
2018-11-22T22:09:46.630Z,77.87
2018-11-22T22:12:14.408Z,86.27
2018-11-22T22:14:42.188Z,85.80
2018-11-22T22:17:11.328Z,75.43
2018-11-22T22:19:39.386Z,87.80
2018-11-22T22:22:07.216Z,85.60
2018-11-22T22:24:34.830Z,74.97
2018-11-22T22:27:02.442Z,86.83
2018-11-22T22:29:30.345Z,88.10
2018-11-22T22:31:58.064Z,88.43
2018-11-22T22:34:25.706Z,81.73
2018-11-22T22:36:53.537Z,79.53
2018-11-22T22:39:21.268Z,77.50
2018-11-22T22:41:49.342Z,85.53
2018-11-22T22:44:17.025Z,102.77
2018-11-22T22:46:44.649Z,73.37
2018-11-22T22:49:12.321Z,80.33
2018-11-22T22:51:40.067Z,83.13
2018-11-22T22:54:07.638Z,83.23
2018-11-22T22:56:35.269Z,82.20
2018-11-22T22:59:02.929Z,84.67
2018-11-22T23:01:30.526Z,85.60
2018-11-22T23:03:58.285Z,80.93
2018-11-22T23:06:25.976Z,77.17
2018-11-22T23:08:53.576Z,82.40
2018-11-22T23:11:21.136Z,85.57
2018-11-22T23:13:49.002Z,87.27
2018-11-22T23:16:16.581Z,76.00
2018-11-22T23:18:44.233Z,89.17
2018-11-22T23:21:11.794Z,87.77
2018-11-22T23:23:39.439Z,75.33
2018-11-22T23:26:07.060Z,82.97
2018-11-22T23:28:34.659Z,84.43
2018-11-22T23:31:02.432Z,85.13
2018-11-22T23:33:30.425Z,80.53
2018-11-22T23:35:57.955Z,94.60
2018-11-22T23:38:25.600Z,85.30
2018-11-22T23:40:53.317Z,85.87
2018-11-22T23:43:20.987Z,80.90
2018-11-22T23:45:48.638Z,74.83
2018-11-22T23:48:16.234Z,98.17
2018-11-22T23:50:43.828Z,87.20
2018-11-22T23:53:11.546Z,79.07
2018-11-22T23:55:39.208Z,73.43
2018-11-22T23:58:10.125Z,86.07
